Decoded Metar for KAXN (ALEXANDRIA in MN, USA) (IATA:AXN) | Meteo·Mobile Aviation Weather
aviador You're here:

KAXN Decoded Metar

ALEXANDRIA in MN, USA
Report Time2019-01-18 10:53:00
UTC Time2019-01-18 11:16:27
Flight Rules vfr VFR
Wind050° at 10 kt
W.Decomp.*RWY 04: 9.9 kt HW 1.0 kt RCW
RWY 13: 1.0 kt HW 9.9 kt LCW
W.Rank050° ranks 35
Current wind is above 050° avg. (7.3)
Visibility9999 m
Phenomena:N/A
Clouds:Overcast 085 Hf
Expected CloudBase > 2,800 ft AGL from Temp-Dew spread
Ceiling8,500 ft
Temp-16°C (ISA -28)
Dew Point-23°C (55% RH)
AAT-23.3°C
QNH1022 hPa
Density Alt-2,431 ft
Elevation1,421 ft
Report Wrong Elevation
Raw Report
KAXN 181053Z AUTO 05010KT 10SM OVC085 M16/M23 A3018 RMK AO2 SLP254
T11561228=

Extra information for KAXN:More info

Metar Taf Metar & Taf Last 4 Metars F.Rules Stats Wind Profile Meteogram Temp Stats Airport Information Weather charts Add Link Nearby VenuesMetar ALERT Operation Metar Decoded Social comments

AIRNAV info for KAXN